アデレード の空港の天気 - METARとTAF

アデレード空港 ( YPAD / ADL ) - オーストラリア 南オーストラリア州アデレード
飛行場実況気象(Metar)
観測時間04/22 02:00 ACST (04/21 16:30 UTC)
風向・風速東南東 3m/s
視程10km以上
天気現象
少しの雲 雲底高度 790m
気温11℃
湿度82%
気圧1024hPa
METARYPAD 211630Z 11005KT 9999 FEW026 11/08 Q1024 NOSIG
過去の天気等 Google飛行場航空写真 Wunderground天気予報

過去48時間のMETAR

飛行場予報(TAF)
発表時間: 4/21 20:51 ACST (4/21 11:21 UTC)
予報対象時間: 21日21時 ACST ~ 23日3時 ACST
風向・風速南 4m/s
視程10km以上
全天の4割程度の雲 雲底高度 910m
22日10時 ACST から
風向・風速南西 5m/s
視程10km以上
全天の4割程度の雲 雲底高度 1220m
22日14時 ACST から
風向・風速南東 4m/s
視程10km以上
なし
23日0時 ACST から
風向・風速東南東 4m/s
視程10km以上
なし
TAF YPAD 211121Z 2112/2218 17008KT 9999 SCT030
FM220100 23010KT 9999 SCT040
FM220500 14008KT CAVOK
FM221500 11008KT CAVOK